Nearby METAR Reports

 

KSFO - San Francisco, California, USA
Distance from station: NNW 8km
Updated: Wed, 28-Jun-2017 9:56pm PDT
Mostly cloudy
Mostly cloudy
 Wind from W
Wind: W 14 mph , 22 km/h, Gust: 23 mph , 37 km/h
Temperature: 57°F , 14°C
Dew Point: 52°F , 11°C
Humidity: 82%
Barometer: 29.94 inHg , 1013.9 hPa
Clouds: Mostly cloudy
Visibility: 10 miles , 16 km
Cloud details: Few Clouds 800 ft
Mostly cloudy 1300 ft
2017/06/29 04:56 KSFO 290456Z 26012G20KT 10SM FEW008 BKN013 14/11 A2994 RMK AO2 SLP139 T01440106
KSQL - San Carlos Airpo, California, USA
Distance from station: ESE 8km
Updated: Wed, 28-Jun-2017 10:15pm PDT
Clear
Clear
 Wind from W
Wind: W 7 mph , 11 km/h
Temperature: 59°F , 15°C
Dew Point: 50°F , 10°C
Humidity: 72%
Barometer: 29.95 inHg , 1014.2 hPa
Clouds: Clear
Visibility: 10 miles , 16 km
2017/06/29 05:15 KSQL 290515Z AUTO 27006KT 10SM CLR 15/10 A2995 RMK AO2
 
KHAF - Half Moon Bay, California, USA
Distance from station: WSW 15km
Updated: Wed, 28-Jun-2017 10:15pm PDT
Overcast
Overcast
 Wind from NW
Wind: NW 5 mph , 7 km/h
Temperature: 57°F , 14°C
Dew Point: 54°F , 12°C
Humidity: 88%
Barometer: 29.98 inHg , 1015.2 hPa
Clouds: Overcast
Visibility: 7 miles , 11 km
Cloud details: Overcast 1100 ft
2017/06/29 05:15 KHAF 290515Z AUTO 32004KT 7SM OVC011 14/12 A2998 RMK AO2
KOAK - Oakland, California, USA
Distance from station: NNE 21km
Updated: Wed, 28-Jun-2017 9:53pm PDT
Mostly cloudy
Mostly cloudy
 Wind from W
Wind: W 15 mph , 24 km/h
Temperature: 61°F , 16°C
Dew Point: 54°F , 12°C
Humidity: 77%
Barometer: 29.95 inHg , 1014.2 hPa
Clouds: Mostly cloudy
Visibility: 10 miles , 16 km
Cloud details: Mostly cloudy 1300 ft
2017/06/29 04:53 KOAK 290453Z 28013KT 10SM BKN013 16/12 A2995 RMK AO2 SLP141 T01560122
 
KPAO - Palo Alto, California, USA
Distance from station: ESE 21km
Updated: Wed, 28-Jun-2017 8:47pm PDT
NOT Current
Clear
Clear
 Wind from NNW
Wind: NNW 12 mph , 19 km/h
Temperature: 63°F , 17°C
Dew Point: 57°F , 14°C
Humidity: 83%
Barometer: 29.92 inHg , 1013.2 hPa
Clouds: Clear
Visibility: 10 miles , 16 km
2017/06/29 03:47 KPAO 290347Z 33010KT 10SM SKC 17/14 A2992 RMK LAST
KHWD - Hayward, California, USA
Distance from station: NE 23km
Updated: Wed, 28-Jun-2017 9:54pm PDT
Overcast
Overcast
 Wind from W
Wind: W 12 mph , 19 km/h
Temperature: 61°F , 16°C
Dew Point: 52°F , 11°C
Humidity: 72%
Barometer: 29.94 inHg , 1013.9 hPa
Clouds: Overcast
Visibility: 10 miles , 16 km
Cloud details: Overcast 1200 ft
2017/06/29 04:54 KHWD 290454Z 28010KT 10SM OVC012 16/11 A2994 RMK AO2 SLP149 T01560106
 
KNUQ - Moffett Nas/Mtn, California, USA
Distance from station: ESE 30km
Updated: Wed, 28-Jun-2017 9:56pm PDT
Clear
Clear
 Wind from N
Wind: N 7 mph , 11 km/h
Temperature: 61°F , 16°C
Dew Point: 55°F , 13°C
Humidity: 83%
Barometer: 29.95 inHg , 1014.2 hPa
Clouds: Clear
Visibility: 10 miles , 16 km
2017/06/29 04:56 KNUQ 290456Z 01006KT 10SM CLR 16/13 A2995 RMK AO2 SLP144 T01610133
KSJC - San Jose, California, USA
Distance from station: ESE 42km
Updated: Wed, 28-Jun-2017 9:53pm PDT
Clear
Clear
 Wind from NW
Wind: NW 10 mph , 17 km/h
Temperature: 61°F , 16°C
Dew Point: 55°F , 13°C
Humidity: 83%
Barometer: 29.94 inHg , 1013.9 hPa
Clouds: Clear
Visibility: 10 miles , 16 km
2017/06/29 04:53 KSJC 290453Z 31009KT 10SM CLR 16/13 A2994 RMK AO2 SLP139 T01610128
 
KLVK - Livermore, California, USA
Distance from station: ENE 49km
Updated: Wed, 28-Jun-2017 9:53pm PDT
Clear
Clear
 Wind from NW
Wind: NW 10 mph , 17 km/h
Temperature: 59°F , 15°C
Dew Point: 52°F , 11°C
Humidity: 77%
Barometer: 29.91 inHg , 1012.9 hPa
Clouds: Clear
Visibility: 9 miles , 14 km
2017/06/29 04:53 KLVK 290453Z 31009KT 9SM CLR 15/11 A2991 RMK AO2 SLP127 T01500111
KRHV - San Jose/Reid, California, USA
Distance from station: ESE 53km
Updated: Wed, 28-Jun-2017 9:47pm PDT
Clear
Clear
 Wind from NW
Wind: NW 8 mph , 13 km/h
Temperature: 61°F , 16°C
Dew Point: 54°F , 12°C
Humidity: 77%
Barometer: 29.96 inHg , 1014.6 hPa
Clouds: Clear
Visibility: 10 miles , 16 km
2017/06/29 04:47 KRHV 290447Z 31007KT 10SM SKC 16/12 A2996 RMK LAST
 
KCCR - Concord, California, USA
Distance from station: NNE 56km
Updated: Wed, 28-Jun-2017 9:53pm PDT
Clear
Clear
 Wind from S
Wind: S 17 mph , 28 km/h
Temperature: 63°F , 17°C
Dew Point: 54°F , 12°C
Humidity: 73%
Barometer: 29.89 inHg , 1012.2 hPa
Clouds: Clear
Visibility: 10 miles , 16 km
2017/06/29 04:53 KCCR 290453Z 19015KT 10SM CLR 17/12 A2989 RMK AO2 SLP106 T01670117
KDVO - Novato/Gnoss Fld, California, USA
Distance from station: NNW 70km
Updated: Wed, 28-Jun-2017 10:15pm PDT
Clear
Clear
 Wind from E
Wind: E 6 mph , 9 km/h
Temperature: 55°F , 13°C
Dew Point: 52°F , 11°C
Humidity: 88%
Barometer: 29.91 inHg , 1012.9 hPa
Clouds: Clear
Visibility: 10 miles , 16 km
2017/06/29 05:15 KDVO 290515Z AUTO 08005KT 10SM CLR 13/11 A2991 RMK AO2
 
KAPC - Napa, California, USA
Distance from station: N 73km
Updated: Wed, 28-Jun-2017 9:54pm PDT
Clear
Clear
 Wind from SW
Wind: SW 9 mph , 15 km/h
Temperature: 61°F , 16°C
Dew Point: 52°F , 11°C
Humidity: 72%
Barometer: 29.90 inHg , 1012.5 hPa
Clouds: Clear
Visibility: 10 miles , 16 km
2017/06/29 04:54 KAPC 290454Z AUTO 22008KT 10SM CLR 16/11 A2990 RMK AO2 SLP115 T01560111